sensor_id;sensor_type;location;lat;lon;timestamp;pressure;altitude;pressure_sealevel;temperature;humidity
1736;BME280;865;53.672;10.250;2024-01-11T00:01:38;102788.31;;;-2.49;100.00
1736;BME280;865;53.672;10.250;2024-01-11T00:04:04;102785.16;;;-2.45;100.00
1736;BME280;865;53.672;10.250;2024-01-11T00:06:31;102791.63;;;-2.50;100.00
1736;BME280;865;53.672;10.250;2024-01-11T00:08:57;102786.22;;;-2.55;100.00
1736;BME280;865;53.672;10.250;2024-01-11T00:11:24;102785.75;;;-2.49;100.00
1736;BME280;865;53.672;10.250;2024-01-11T00:13:50;102777.69;;;-2.42;100.00
1736;BME280;865;53.672;10.250;2024-01-11T00:16:16;102777.13;;;-2.38;100.00
1736;BME280;865;53.672;10.250;2024-01-11T00:18:43;102778.47;;;-2.43;100.00
1736;BME280;865;53.672;10.250;2024-01-11T00:21:11;102770.41;;;-2.49;100.00
1736;BME280;865;53.672;10.250;2024-01-11T00:23:37;102781.00;;;-2.56;100.00
1736;BME280;865;53.672;10.250;2024-01-11T00:26:04;102781.13;;;-2.55;100.00
1736;BME280;865;53.672;10.250;2024-01-11T00:28:30;102783.00;;;-2.52;100.00
1736;BME280;865;53.672;10.250;2024-01-11T00:30:57;102778.03;;;-2.62;100.00
1736;BME280;865;53.672;10.250;2024-01-11T00:33:23;102768.72;;;-2.62;100.00
1736;BME280;865;53.672;10.250;2024-01-11T00:35:50;102768.59;;;-2.63;100.00
1736;BME280;865;53.672;10.250;2024-01-11T00:38:16;102755.97;;;-2.62;100.00
1736;BME280;865;53.672;10.250;2024-01-11T00:40:43;102753.47;;;-2.60;100.00
1736;BME280;865;53.672;10.250;2024-01-11T00:43:10;102756.63;;;-2.64;100.00
1736;BME280;865;53.672;10.250;2024-01-11T00:45:36;102745.09;;;-2.71;100.00
1736;BME280;865;53.672;10.250;2024-01-11T00:48:03;102738.34;;;-2.70;100.00
1736;BME280;865;53.672;10.250;2024-01-11T00:50:30;102722.03;;;-2.72;100.00
1736;BME280;865;53.672;10.250;2024-01-11T00:52:57;102723.31;;;-2.66;100.00
1736;BME280;865;53.672;10.250;2024-01-11T00:55:24;102716.38;;;-2.93;100.00
1736;BME280;865;53.672;10.250;2024-01-11T00:57:50;102709.31;;;-2.84;100.00
1736;BME280;865;53.672;10.250;2024-01-11T01:00:17;102707.38;;;-2.75;100.00
1736;BME280;865;53.672;10.250;2024-01-11T01:02:44;102692.78;;;-2.64;100.00
1736;BME280;865;53.672;10.250;2024-01-11T01:05:10;102691.47;;;-2.71;100.00
1736;BME280;865;53.672;10.250;2024-01-11T01:07:37;102702.75;;;-2.81;100.00
1736;BME280;865;53.672;10.250;2024-01-11T01:10:04;102707.28;;;-2.77;100.00
1736;BME280;865;53.672;10.250;2024-01-11T01:12:30;102700.03;;;-2.70;100.00
1736;BME280;865;53.672;10.250;2024-01-11T01:14:57;102698.03;;;-2.88;100.00
1736;BME280;865;53.672;10.250;2024-01-11T01:17:23;102706.09;;;-2.82;100.00
1736;BME280;865;53.672;10.250;2024-01-11T01:19:50;102719.94;;;-2.78;100.00
1736;BME280;865;53.672;10.250;2024-01-11T01:22:16;102714.31;;;-2.86;100.00
1736;BME280;865;53.672;10.250;2024-01-11T01:24:42;102695.09;;;-2.81;100.00
1736;BME280;865;53.672;10.250;2024-01-11T01:27:09;102688.50;;;-2.77;100.00
1736;BME280;865;53.672;10.250;2024-01-11T01:29:35;102692.66;;;-2.79;100.00
1736;BME280;865;53.672;10.250;2024-01-11T01:32:02;102688.09;;;-2.83;100.00
1736;BME280;865;53.672;10.250;2024-01-11T01:34:29;102693.88;;;-2.86;100.00
1736;BME280;865;53.672;10.250;2024-01-11T01:36:55;102698.25;;;-2.85;100.00
1736;BME280;865;53.672;10.250;2024-01-11T01:39:22;102703.69;;;-2.92;100.00
1736;BME280;865;53.672;10.250;2024-01-11T01:41:48;102695.44;;;-3.01;100.00
1736;BME280;865;53.672;10.250;2024-01-11T01:44:14;102701.06;;;-2.93;100.00
1736;BME280;865;53.672;10.250;2024-01-11T01:46:41;102714.22;;;-3.12;100.00
1736;BME280;865;53.672;10.250;2024-01-11T01:49:07;102716.69;;;-3.14;100.00
1736;BME280;865;53.672;10.250;2024-01-11T01:51:34;102717.78;;;-3.10;100.00
1736;BME280;865;53.672;10.250;2024-01-11T01:54:02;102722.47;;;-2.91;100.00
1736;BME280;865;53.672;10.250;2024-01-11T01:56:29;102717.63;;;-3.00;100.00
1736;BME280;865;53.672;10.250;2024-01-11T01:58:56;102723.03;;;-2.95;100.00
1736;BME280;865;53.672;10.250;2024-01-11T02:01:25;102717.38;;;-2.91;100.00
1736;BME280;865;53.672;10.250;2024-01-11T02:03:52;102722.16;;;-2.96;100.00
1736;BME280;865;53.672;10.250;2024-01-11T02:06:25;102727.38;;;-3.19;100.00
1736;BME280;865;53.672;10.250;2024-01-11T02:08:52;102712.38;;;-3.15;100.00
1736;BME280;865;53.672;10.250;2024-01-11T02:11:20;102700.03;;;-3.09;100.00
1736;BME280;865;53.672;10.250;2024-01-11T02:13:47;102709.63;;;-3.18;100.00
1736;BME280;865;53.672;10.250;2024-01-11T02:16:14;102727.91;;;-3.12;100.00
1736;BME280;865;53.672;10.250;2024-01-11T02:18:40;102732.16;;;-2.99;100.00
1736;BME280;865;53.672;10.250;2024-01-11T02:21:09;102743.31;;;-3.10;100.00
1736;BME280;865;53.672;10.250;2024-01-11T02:23:42;102760.09;;;-3.14;100.00
1736;BME280;865;53.672;10.250;2024-01-11T02:26:13;102742.44;;;-3.11;100.00
1736;BME280;865;53.672;10.250;2024-01-11T02:28:46;102734.66;;;-3.12;100.00
1736;BME280;865;53.672;10.250;2024-01-11T02:31:13;102734.88;;;-3.09;100.00
1736;BME280;865;53.672;10.250;2024-01-11T02:33:41;102746.13;;;-3.19;100.00
1736;BME280;865;53.672;10.250;2024-01-11T02:36:07;102742.91;;;-3.16;100.00
1736;BME280;865;53.672;10.250;2024-01-11T02:38:34;102742.44;;;-3.11;100.00
1736;BME280;865;53.672;10.250;2024-01-11T02:41:02;102727.44;;;-3.06;100.00
1736;BME280;865;53.672;10.250;2024-01-11T02:43:29;102723.63;;;-3.00;100.00
1736;BME280;865;53.672;10.250;2024-01-11T02:45:56;102727.66;;;-3.03;100.00
1736;BME280;865;53.672;10.250;2024-01-11T02:48:22;102728.00;;;-3.10;100.00
1736;BME280;865;53.672;10.250;2024-01-11T02:50:53;102721.34;;;-3.08;100.00
1736;BME280;865;53.672;10.250;2024-01-11T02:53:20;102710.38;;;-3.19;100.00
1736;BME280;865;53.672;10.250;2024-01-11T02:55:46;102698.31;;;-3.22;100.00
1736;BME280;865;53.672;10.250;2024-01-11T02:58:12;102702.31;;;-3.25;100.00
1736;BME280;865;53.672;10.250;2024-01-11T03:00:39;102705.28;;;-3.19;100.00
1736;BME280;865;53.672;10.250;2024-01-11T03:03:05;102713.72;;;-3.20;100.00
1736;BME280;865;53.672;10.250;2024-01-11T03:05:32;102700.19;;;-3.19;100.00
1736;BME280;865;53.672;10.250;2024-01-11T03:07:58;102707.97;;;-3.17;100.00
1736;BME280;865;53.672;10.250;2024-01-11T03:10:25;102705.59;;;-3.14;100.00
1736;BME280;865;53.672;10.250;2024-01-11T03:12:51;102700.91;;;-3.08;100.00
1736;BME280;865;53.672;10.250;2024-01-11T03:15:17;102695.81;;;-3.08;100.00
1736;BME280;865;53.672;10.250;2024-01-11T03:17:44;102705.59;;;-3.14;100.00
1736;BME280;865;53.672;10.250;2024-01-11T03:20:12;102702.53;;;-3.22;100.00
1736;BME280;865;53.672;10.250;2024-01-11T03:22:45;102698.25;;;-3.10;100.00
1736;BME280;865;53.672;10.250;2024-01-11T03:25:11;102688.66;;;-3.01;100.00
1736;BME280;865;53.672;10.250;2024-01-11T03:27:37;102687.16;;;-3.10;100.00
1736;BME280;865;53.672;10.250;2024-01-11T03:30:04;102691.50;;;-3.09;100.00
1736;BME280;865;53.672;10.250;2024-01-11T03:32:31;102710.03;;;-3.12;100.00
1736;BME280;865;53.672;10.250;2024-01-11T03:34:58;102724.69;;;-3.09;100.00
1736;BME280;865;53.672;10.250;2024-01-11T03:37:24;102719.34;;;-3.12;100.00
1736;BME280;865;53.672;10.250;2024-01-11T03:39:51;102723.09;;;-3.07;100.00
1736;BME280;865;53.672;10.250;2024-01-11T03:42:17;102720.50;;;-3.21;100.00
1736;BME280;865;53.672;10.250;2024-01-11T03:44:43;102710.31;;;-3.21;100.00
1736;BME280;865;53.672;10.250;2024-01-11T03:47:10;102703.59;;;-3.18;100.00
1736;BME280;865;53.672;10.250;2024-01-11T03:49:36;102696.34;;;-3.26;100.00
1736;BME280;865;53.672;10.250;2024-01-11T03:52:03;102682.03;;;-3.24;100.00
1736;BME280;865;53.672;10.250;2024-01-11T03:54:29;102667.00;;;-3.19;100.00
1736;BME280;865;53.672;10.250;2024-01-11T03:56:56;102675.44;;;-3.20;100.00
1736;BME280;865;53.672;10.250;2024-01-11T03:59:23;102660.06;;;-3.08;100.00
1736;BME280;865;53.672;10.250;2024-01-11T04:01:49;102652.91;;;-3.01;100.00
1736;BME280;865;53.672;10.250;2024-01-11T04:04:16;102652.31;;;-3.10;100.00
1736;BME280;865;53.672;10.250;2024-01-11T04:06:42;102640.00;;;-3.15;100.00
1736;BME280;865;53.672;10.250;2024-01-11T04:09:08;102648.09;;;-3.09;100.00
1736;BME280;865;53.672;10.250;2024-01-11T04:11:35;102651.63;;;-3.07;100.00
1736;BME280;865;53.672;10.250;2024-01-11T04:14:01;102637.91;;;-2.96;100.00
1736;BME280;865;53.672;10.250;2024-01-11T04:16:28;102629.84;;;-3.02;100.00
1736;BME280;865;53.672;10.250;2024-01-11T04:18:55;102647.72;;;-3.02;100.00
1736;BME280;865;53.672;10.250;2024-01-11T04:23:48;102632.16;;;-3.18;100.00
1736;BME280;865;53.672;10.250;2024-01-11T04:26:15;102615.88;;;-3.07;100.00
1736;BME280;865;53.672;10.250;2024-01-11T04:28:41;102629.84;;;-3.02;100.00
1736;BME280;865;53.672;10.250;2024-01-11T04:31:08;102645.72;;;-3.19;100.00
1736;BME280;865;53.672;10.250;2024-01-11T04:33:34;102643.06;;;-3.21;100.00
1736;BME280;865;53.672;10.250;2024-01-11T04:36:01;102640.53;;;-3.08;100.00
1736;BME280;865;53.672;10.250;2024-01-11T04:38:27;102623.94;;;-3.01;100.00
1736;BME280;865;53.672;10.250;2024-01-11T04:40:54;102626.03;;;-2.95;100.00
1736;BME280;865;53.672;10.250;2024-01-11T04:43:20;102629.16;;;-3.00;100.00
1736;BME280;865;53.672;10.250;2024-01-11T04:45:46;102638.19;;;-3.05;100.00
1736;BME280;865;53.672;10.250;2024-01-11T04:48:13;102633.41;;;-3.00;100.00
1736;BME280;865;53.672;10.250;2024-01-11T04:50:40;102660.22;;;-3.18;100.00
1736;BME280;865;53.672;10.250;2024-01-11T04:53:06;102657.72;;;-3.30;100.00
1736;BME280;865;53.672;10.250;2024-01-11T04:55:33;102650.78;;;-3.33;100.00
1736;BME280;865;53.672;10.250;2024-01-11T04:57:59;102625.69;;;-3.52;100.00
1736;BME280;865;53.672;10.250;2024-01-11T05:00:26;102627.06;;;-3.57;100.00
1736;BME280;865;53.672;10.250;2024-01-11T05:02:52;102625.88;;;-3.49;100.00
1736;BME280;865;53.672;10.250;2024-01-11T05:05:19;102623.25;;;-3.50;100.00
1736;BME280;865;53.672;10.250;2024-01-11T05:07:45;102612.09;;;-3.39;100.00
1736;BME280;865;53.672;10.250;2024-01-11T05:10:12;102609.75;;;-3.36;100.00
1736;BME280;865;53.672;10.250;2024-01-11T05:12:38;102616.41;;;-3.38;100.00
1736;BME280;865;53.672;10.250;2024-01-11T05:15:06;102629.38;;;-3.35;100.00
1736;BME280;865;53.672;10.250;2024-01-11T05:17:34;102634.06;;;-3.41;100.00
1736;BME280;865;53.672;10.250;2024-01-11T05:20:01;102629.84;;;-3.40;100.00
1736;BME280;865;53.672;10.250;2024-01-11T05:22:28;102636.03;;;-3.37;100.00
1736;BME280;865;53.672;10.250;2024-01-11T05:24:55;102637.41;;;-3.42;100.00
1736;BME280;865;53.672;10.250;2024-01-11T05:27:21;102630.94;;;-3.37;100.00
1736;BME280;865;53.672;10.250;2024-01-11T05:29:47;102625.28;;;-3.33;100.00
1736;BME280;865;53.672;10.250;2024-01-11T05:32:14;102633.13;;;-3.30;100.00
1736;BME280;865;53.672;10.250;2024-01-11T05:34:40;102627.44;;;-3.26;100.00
1736;BME280;865;53.672;10.250;2024-01-11T05:37:07;102623.13;;;-3.27;100.00
1736;BME280;865;53.672;10.250;2024-01-11T05:39:34;102612.19;;;-3.37;100.00
1736;BME280;865;53.672;10.250;2024-01-11T05:42:00;102596.41;;;-3.32;100.00
1736;BME280;865;53.672;10.250;2024-01-11T05:44:26;102585.22;;;-3.34;100.00
1736;BME280;865;53.672;10.250;2024-01-11T05:46:53;102581.31;;;-3.29;100.00
1736;BME280;865;53.672;10.250;2024-01-11T05:49:20;102575.00;;;-3.34;100.00
1736;BME280;865;53.672;10.250;2024-01-11T05:51:46;102569.53;;;-3.27;100.00
1736;BME280;865;53.672;10.250;2024-01-11T05:54:12;102574.13;;;-3.34;100.00
1736;BME280;865;53.672;10.250;2024-01-11T05:56:39;102561.78;;;-3.28;100.00
1736;BME280;865;53.672;10.250;2024-01-11T05:59:05;102568.53;;;-3.29;100.00
1736;BME280;865;53.672;10.250;2024-01-11T06:01:32;102571.31;;;-3.26;100.00
1736;BME280;865;53.672;10.250;2024-01-11T06:03:58;102577.59;;;-3.21;100.00
1736;BME280;865;53.672;10.250;2024-01-11T06:06:25;102578.38;;;-3.22;100.00
1736;BME280;865;53.672;10.250;2024-01-11T06:08:52;102582.19;;;-3.28;100.00
1736;BME280;865;53.672;10.250;2024-01-11T06:11:18;102570.50;;;-3.25;100.00
1736;BME280;865;53.672;10.250;2024-01-11T06:13:45;102580.84;;;-3.23;100.00
1736;BME280;865;53.672;10.250;2024-01-11T06:16:11;102570.59;;;-3.36;100.00
1736;BME280;865;53.672;10.250;2024-01-11T06:18:39;102571.91;;;-3.30;100.00
1736;BME280;865;53.672;10.250;2024-01-11T06:21:05;102564.03;;;-3.19;100.00
1736;BME280;865;53.672;10.250;2024-01-11T06:23:31;102567.66;;;-3.29;100.00
1736;BME280;865;53.672;10.250;2024-01-11T06:25:58;102561.38;;;-3.34;100.00
1736;BME280;865;53.672;10.250;2024-01-11T06:28:25;102562.75;;;-3.26;100.00
1736;BME280;865;53.672;10.250;2024-01-11T06:30:51;102577.09;;;-3.28;100.00
1736;BME280;865;53.672;10.250;2024-01-11T06:33:19;102562.75;;;-3.26;100.00
1736;BME280;865;53.672;10.250;2024-01-11T06:35:46;102551.47;;;-3.30;100.00
1736;BME280;865;53.672;10.250;2024-01-11T06:38:13;102565.03;;;-3.17;100.00
1736;BME280;865;53.672;10.250;2024-01-11T06:40:40;102566.50;;;-3.08;100.00
1736;BME280;865;53.672;10.250;2024-01-11T06:43:06;102559.53;;;-3.10;100.00
1736;BME280;865;53.672;10.250;2024-01-11T06:45:33;102560.53;;;-3.08;100.00
1736;BME280;865;53.672;10.250;2024-01-11T06:47:59;102559.53;;;-3.10;100.00
1736;BME280;865;53.672;10.250;2024-01-11T06:50:26;102560.50;;;-3.22;100.00
1736;BME280;865;53.672;10.250;2024-01-11T06:52:52;102550.50;;;-3.18;100.00
1736;BME280;865;53.672;10.250;2024-01-11T06:55:19;102550.22;;;-3.10;100.00
1736;BME280;865;53.672;10.250;2024-01-11T06:57:48;102546.41;;;-3.03;100.00
1736;BME280;865;53.672;10.250;2024-01-11T07:00:15;102556.81;;;-3.00;100.00
1736;BME280;865;53.672;10.250;2024-01-11T07:02:41;102565.25;;;-3.01;100.00
1736;BME280;865;53.672;10.250;2024-01-11T07:05:08;102558.84;;;-3.08;100.00
1736;BME280;865;53.672;10.250;2024-01-11T07:07:35;102554.84;;;-3.17;100.00
1736;BME280;865;53.672;10.250;2024-01-11T07:10:02;102558.97;;;-3.06;100.00
1736;BME280;865;53.672;10.250;2024-01-11T07:12:31;102553.88;;;-3.06;100.00
1736;BME280;865;53.672;10.250;2024-01-11T07:14:57;102549.53;;;-3.07;100.00
1736;BME280;865;53.672;10.250;2024-01-11T07:17:24;102550.59;;;-3.04;100.00
1736;BME280;865;53.672;10.250;2024-01-11T07:19:51;102555.44;;;-3.08;100.00
1736;BME280;865;53.672;10.250;2024-01-11T07:22:17;102554.63;;;-3.07;100.00
1736;BME280;865;53.672;10.250;2024-01-11T07:24:44;102550.13;;;-2.98;100.00
1736;BME280;865;53.672;10.250;2024-01-11T07:27:10;102539.34;;;-2.94;100.00
1736;BME280;865;53.672;10.250;2024-01-11T07:29:37;102542.19;;;-3.03;100.00
1736;BME280;865;53.672;10.250;2024-01-11T07:32:04;102547.16;;;-3.04;100.00
1736;BME280;865;53.672;10.250;2024-01-11T07:34:31;102542.88;;;-3.05;100.00
1736;BME280;865;53.672;10.250;2024-01-11T07:36:58;102535.22;;;-3.05;100.00
1736;BME280;865;53.672;10.250;2024-01-11T07:39:25;102532.25;;;-2.98;100.00
1736;BME280;865;53.672;10.250;2024-01-11T07:41:52;102524.78;;;-2.95;100.00
1736;BME280;865;53.672;10.250;2024-01-11T07:44:19;102519.47;;;-2.98;100.00
1736;BME280;865;53.672;10.250;2024-01-11T07:46:46;102507.91;;;-2.93;100.00
1736;BME280;865;53.672;10.250;2024-01-11T07:49:20;102517.53;;;-2.89;100.00
1736;BME280;865;53.672;10.250;2024-01-11T07:51:47;102520.19;;;-2.87;100.00
1736;BME280;865;53.672;10.250;2024-01-11T07:54:13;102527.53;;;-2.79;100.00
1736;BME280;865;53.672;10.250;2024-01-11T07:56:40;102523.22;;;-2.66;100.00
1736;BME280;865;53.672;10.250;2024-01-11T07:59:07;102513.38;;;-2.60;100.00
1736;BME280;865;53.672;10.250;2024-01-11T08:01:33;102504.91;;;-2.59;100.00
1736;BME280;865;53.672;10.250;2024-01-11T08:04:01;102512.38;;;-2.62;100.00
1736;BME280;865;53.672;10.250;2024-01-11T08:06:29;102512.56;;;-2.59;100.00
1736;BME280;865;53.672;10.250;2024-01-11T08:08:56;102510.19;;;-2.56;100.00
1736;BME280;865;53.672;10.250;2024-01-11T08:11:23;102495.19;;;-2.52;100.00
1736;BME280;865;53.672;10.250;2024-01-11T08:13:50;102491.25;;;-2.46;100.00
1736;BME280;865;53.672;10.250;2024-01-11T08:16:17;102485.44;;;-2.44;100.00
1736;BME280;865;53.672;10.250;2024-01-11T08:18:44;102490.94;;;-2.38;100.00
1736;BME280;865;53.672;10.250;2024-01-11T08:21:12;102498.28;;;-2.42;100.00
1736;BME280;865;53.672;10.250;2024-01-11T08:23:41;102502.09;;;-2.36;100.00
1736;BME280;865;53.672;10.250;2024-01-11T08:26:13;102501.53;;;-2.32;100.00
1736;BME280;865;53.672;10.250;2024-01-11T08:28:41;102503.66;;;-2.24;100.00
1736;BME280;865;53.672;10.250;2024-01-11T08:31:07;102495.34;;;-2.20;100.00
1736;BME280;865;53.672;10.250;2024-01-11T08:33:35;102503.22;;;-2.17;100.00
1736;BME280;865;53.672;10.250;2024-01-11T08:36:04;102507.81;;;-2.12;100.00
1736;BME280;865;53.672;10.250;2024-01-11T08:38:31;102514.22;;;-2.05;100.00
1736;BME280;865;53.672;10.250;2024-01-11T08:40:58;102520.72;;;-2.10;100.00
1736;BME280;865;53.672;10.250;2024-01-11T08:43:27;102527.88;;;-2.04;100.00
1736;BME280;865;53.672;10.250;2024-01-11T08:45:54;102536.69;;;-1.99;100.00
1736;BME280;865;53.672;10.250;2024-01-11T08:48:21;102530.16;;;-1.94;100.00
1736;BME280;865;53.672;10.250;2024-01-11T08:50:48;102528.78;;;-1.89;100.00
1736;BME280;865;53.672;10.250;2024-01-11T08:53:14;102528.31;;;-1.97;100.00
1736;BME280;865;53.672;10.250;2024-01-11T08:55:42;102520.06;;;-1.93;100.00
1736;BME280;865;53.672;10.250;2024-01-11T08:58:12;102521.47;;;-1.83;100.00
1736;BME280;865;53.672;10.250;2024-01-11T09:00:38;102511.88;;;-1.72;100.00
1736;BME280;865;53.672;10.250;2024-01-11T09:03:05;102514.19;;;-1.62;100.00
1736;BME280;865;53.672;10.250;2024-01-11T09:05:31;102517.03;;;-1.57;100.00
1736;BME280;865;53.672;10.250;2024-01-11T09:07:58;102516.91;;;-1.59;100.00
1736;BME280;865;53.672;10.250;2024-01-11T09:10:25;102517.19;;;-1.54;100.00
1736;BME280;865;53.672;10.250;2024-01-11T09:12:52;102516.22;;;-1.56;100.00
1736;BME280;865;53.672;10.250;2024-01-11T09:15:18;102515.94;;;-1.46;100.00
1736;BME280;865;53.672;10.250;2024-01-11T09:17:45;102511.09;;;-1.42;100.00
1736;BME280;865;53.672;10.250;2024-01-11T09:20:11;102525.84;;;-1.38;100.00
1736;BME280;865;53.672;10.250;2024-01-11T09:22:40;102534.78;;;-1.31;100.00
1736;BME280;865;53.672;10.250;2024-01-11T09:25:07;102547.63;;;-1.29;100.00
1736;BME280;865;53.672;10.250;2024-01-11T09:27:34;102540.84;;;-1.29;100.00
1736;BME280;865;53.672;10.250;2024-01-11T09:30:01;102542.88;;;-1.23;100.00
1736;BME280;865;53.672;10.250;2024-01-11T09:32:28;102542.88;;;-1.23;100.00
1736;BME280;865;53.672;10.250;2024-01-11T09:34:57;102542.81;;;-1.25;100.00
1736;BME280;865;53.672;10.250;2024-01-11T09:37:23;102542.88;;;-1.23;100.00
1736;BME280;865;53.672;10.250;2024-01-11T09:39:50;102534.72;;;-1.16;100.00
1736;BME280;865;53.672;10.250;2024-01-11T09:42:18;102530.59;;;-1.14;100.00
1736;BME280;865;53.672;10.250;2024-01-11T09:44:44;102542.50;;;-1.15;100.00
1736;BME280;865;53.672;10.250;2024-01-11T09:47:14;102552.31;;;-1.07;100.00
1736;BME280;865;53.672;10.250;2024-01-11T09:49:44;102556.66;;;-1.06;100.00
1736;BME280;865;53.672;10.250;2024-01-11T09:52:12;102547.09;;;-1.09;100.00
1736;BME280;865;53.672;10.250;2024-01-11T09:54:40;102537.84;;;-1.07;100.00
1736;BME280;865;53.672;10.250;2024-01-11T09:57:09;102543.50;;;-1.12;100.00
1736;BME280;865;53.672;10.250;2024-01-11T09:59:36;102547.53;;;-1.01;100.00
1736;BME280;865;53.672;10.250;2024-01-11T10:02:03;102544.78;;;-0.89;100.00
1736;BME280;865;53.672;10.250;2024-01-11T10:04:30;102547.34;;;-0.89;100.00
1736;BME280;865;53.672;10.250;2024-01-11T10:06:57;102551.69;;;-0.88;100.00
1736;BME280;865;53.672;10.250;2024-01-11T10:09:24;102540.09;;;-0.82;100.00
1736;BME280;865;53.672;10.250;2024-01-11T10:11:50;102537.63;;;-0.80;100.00
1736;BME280;865;53.672;10.250;2024-01-11T10:14:20;102539.63;;;-0.75;100.00
1736;BME280;865;53.672;10.250;2024-01-11T10:16:47;102545.19;;;-0.67;100.00
1736;BME280;865;53.672;10.250;2024-01-11T10:19:14;102549.44;;;-0.67;100.00
1736;BME280;865;53.672;10.250;2024-01-11T10:21:43;102559.25;;;-0.75;100.00
1736;BME280;865;53.672;10.250;2024-01-11T10:24:10;102562.06;;;-0.71;100.00
1736;BME280;865;53.672;10.250;2024-01-11T10:26:43;102572.56;;;-0.66;100.00
1736;BME280;865;53.672;10.250;2024-01-11T10:29:10;102589.91;;;-0.77;100.00
1736;BME280;865;53.672;10.250;2024-01-11T10:31:40;102595.56;;;-0.67;100.00
1736;BME280;865;53.672;10.250;2024-01-11T10:34:06;102589.00;;;-0.62;100.00
1736;BME280;865;53.672;10.250;2024-01-11T10:36:33;102601.09;;;-0.60;100.00
1736;BME280;865;53.672;10.250;2024-01-11T10:39:01;102616.81;;;-0.54;100.00
1736;BME280;865;53.672;10.250;2024-01-11T10:41:32;102623.41;;;-0.42;100.00
1736;BME280;865;53.672;10.250;2024-01-11T10:44:02;102624.88;;;-0.48;100.00
1736;BME280;865;53.672;10.250;2024-01-11T10:46:31;102625.78;;;-0.62;100.00
1736;BME280;865;53.672;10.250;2024-01-11T10:49:02;102617.63;;;-0.55;100.00
1736;BME280;865;53.672;10.250;2024-01-11T10:51:32;102621.66;;;-0.43;100.00
1736;BME280;865;53.672;10.250;2024-01-11T10:54:00;102620.97;;;-0.41;100.00
1736;BME280;865;53.672;10.250;2024-01-11T10:56:28;102616.94;;;-0.36;100.00
1736;BME280;865;53.672;10.250;2024-01-11T10:58:56;102604.16;;;-0.51;100.00
1736;BME280;865;53.672;10.250;2024-01-11T11:01:24;102608.25;;;-0.54;100.00
1736;BME280;865;53.672;10.250;2024-01-11T11:03:52;102604.00;;;-0.54;100.00
1736;BME280;865;53.672;10.250;2024-01-11T11:06:20;102598.34;;;-0.63;100.00
1736;BME280;865;53.672;10.250;2024-01-11T11:08:50;102592.78;;;-0.56;100.00
1736;BME280;865;53.672;10.250;2024-01-11T11:11:17;102576.94;;;-0.49;100.00
1736;BME280;865;53.672;10.250;2024-01-11T11:13:47;102558.56;;;-0.41;100.00
1736;BME280;865;53.672;10.250;2024-01-11T11:16:15;102550.94;;;-0.40;100.00
1736;BME280;865;53.672;10.250;2024-01-11T11:18:41;102549.09;;;-0.42;100.00
1736;BME280;865;53.672;10.250;2024-01-11T11:21:09;102553.59;;;-0.38;100.00
1736;BME280;865;53.672;10.250;2024-01-11T11:23:37;102557.03;;;-0.38;100.00
1736;BME280;865;53.672;10.250;2024-01-11T11:26:06;102567.91;;;-0.42;100.00
1736;BME280;865;53.672;10.250;2024-01-11T11:28:36;102560.63;;;-0.34;100.00
1736;BME280;865;53.672;10.250;2024-01-11T11:31:03;102557.91;;;-0.37;100.00
1736;BME280;865;53.672;10.250;2024-01-11T11:33:29;102559.94;;;-0.32;100.00
1736;BME280;865;53.672;10.250;2024-01-11T11:35:58;102567.41;;;-0.20;100.00
1736;BME280;865;53.672;10.250;2024-01-11T11:38:29;102575.25;;;-0.17;100.00
1736;BME280;865;53.672;10.250;2024-01-11T11:40:57;102573.72;;;-0.13;100.00
1736;BME280;865;53.672;10.250;2024-01-11T11:43:26;102574.16;;;-0.06;100.00
1736;BME280;865;53.672;10.250;2024-01-11T11:45:53;102560.31;;;-0.24;100.00
1736;BME280;865;53.672;10.250;2024-01-11T11:51:17;102540.94;;;-0.19;100.00
1736;BME280;865;53.672;10.250;2024-01-11T11:53:47;102529.16;;;-0.15;100.00
1736;BME280;865;53.672;10.250;2024-01-11T11:56:18;102529.97;;;-0.16;100.00
1736;BME280;865;53.672;10.250;2024-01-11T11:58:47;102526.34;;;-0.04;100.00
1736;BME280;865;53.672;10.250;2024-01-11T12:01:15;102528.75;;;-0.07;100.00
1736;BME280;865;53.672;10.250;2024-01-11T12:03:45;102520.13;;;-0.09;100.00
1736;BME280;865;53.672;10.250;2024-01-11T12:06:20;102523.88;;;-0.02;100.00
1736;BME280;865;53.672;10.250;2024-01-11T12:08:47;102509.78;;;0.06;100.00
1736;BME280;865;53.672;10.250;2024-01-11T12:11:17;102503.28;;;0.13;100.00
1736;BME280;865;53.672;10.250;2024-01-11T12:13:44;102503.44;;;0.16;100.00
1736;BME280;865;53.672;10.250;2024-01-11T12:16:11;102498.38;;;0.17;100.00
1736;BME280;865;53.672;10.250;2024-01-11T12:18:39;102490.34;;;0.11;100.00
1736;BME280;865;53.672;10.250;2024-01-11T12:21:07;102490.19;;;0.08;100.00
1736;BME280;865;53.672;10.250;2024-01-11T12:23:34;102488.34;;;0.22;100.00
1736;BME280;865;53.672;10.250;2024-01-11T12:26:02;102498.22;;;0.14;100.00
1736;BME280;865;53.672;10.250;2024-01-11T12:28:31;102491.56;;;0.18;100.00
1736;BME280;865;53.672;10.250;2024-01-11T12:30:59;102492.50;;;0.20;100.00
1736;BME280;865;53.672;10.250;2024-01-11T12:33:26;102497.31;;;0.30;100.00
1736;BME280;865;53.672;10.250;2024-01-11T12:35:54;102495.38;;;0.26;100.00
1736;BME280;865;53.672;10.250;2024-01-11T12:38:21;102504.66;;;0.40;100.00
1736;BME280;865;53.672;10.250;2024-01-11T12:40:48;102497.63;;;0.36;100.00
1736;BME280;865;53.672;10.250;2024-01-11T12:43:15;102494.09;;;0.34;100.00
1736;BME280;865;53.672;10.250;2024-01-11T12:45:42;102503.53;;;0.52;100.00
1736;BME280;865;53.672;10.250;2024-01-11T12:48:09;102508.81;;;0.55;100.00
1736;BME280;865;53.672;10.250;2024-01-11T12:50:36;102510.56;;;0.56;100.00
1736;BME280;865;53.672;10.250;2024-01-11T12:53:15;102508.53;;;0.66;100.00
1736;BME280;865;53.672;10.250;2024-01-11T12:55:48;102509.47;;;0.51;100.00
1736;BME280;865;53.672;10.250;2024-01-11T12:58:23;102515.41;;;0.50;100.00
1736;BME280;865;53.672;10.250;2024-01-11T13:00:51;102514.97;;;0.58;100.00
1736;BME280;865;53.672;10.250;2024-01-11T13:03:19;102506.78;;;0.65;100.00
1736;BME280;865;53.672;10.250;2024-01-11T13:05:47;102504.22;;;0.65;100.00